METAR Data
IDs: Format: Raw Decoded Include TAF

Data at: 1455 UTC 18 Aug 2019

PAMR 181453Z 33015G23KT CLR 12/00 A3008 RMK AO2 PK WND 34026/1426 SLP186 T01220000 56004 $
PAMR 181353Z 34015G23KT CLR 13/00 A3008 RMK AO2 SLP187 T01280000 $
PAMR 181253Z 35011G18KT CLR 14/M02 A3009 RMK AO2 SLP188 T01441017 $
PAMR 181153Z 34014G21KT CLR 14/00 A3009 RMK AO2 RAE02 SLP190 P0000 60000 T01440000 10189 20144 55001 $
PAMR 181053Z 35016G25KT -RA CLR 16/M01 A3009 RMK AO2 PK WND 34029/1001 RAB46 SLP188 P0000 T01561006 $
PAMR 180953Z 35017G28KT CLR 16/00 A3009 RMK AO2 PK WND 34028/0953 SLP190 T01610000 $
PAMR 180853Z 35015G22KT CLR 17/00 A3010 RMK AO2 SLP191 T01670000 402390111 58005 $
PAMR 180753Z 34016G23KT CLR 17/01 A3010 RMK AO2 SLP193 T01720006 $
PAMR 180653Z 34012KT 10SM CLR 18/02 A3011 RMK AO2 SLP195 T01780017 $
PAMR 180553Z 33011KT CLR 19/03 A3011 RMK AO2 SLP196 T01890028 10239 20189 55000 $
PAMR 180453Z 35010G19KT 10SM CLR 21/M01 A3011 RMK AO2 SLP195 T02061006 $
PAMR 180353Z 36010G16KT 10SM CLR 22/M02 A3011 RMK AO2 SLP197 T02221022
PAMR 180253Z 01013G20KT 10SM CLR 23/M04 A3011 RMK AO2 SLP197 T02331039 56007
PAMR 180153Z 02013G24KT 10SM CLR 24/M03 A3012 RMK AO2 SLP198 T02391028
PAMR 180053Z 01014G21KT 10SM CLR 24/M02 A3012 RMK AO2 PK WND 34027/0035 SLP199 T02391017
PAMR 172353Z COR 35016G27KT 10SM CLR 23/M01 A3013 RMK AO2 PK WND 35027/2332 SLP204 T02331006 10233 20167 58011
PAMR 172253Z 35016G22KT 10SM CLR 22/00 A3015 RMK AO2 PK WND 33027/2210 SLP209 T02220000
PAMR 172153Z 36015G22KT 10SM CLR 22/00 A3017 RMK AO2 SLP215 T02220000
PAMR 172053Z 34017G25KT 10SM CLR 21/01 A3017 RMK AO2 PK WND 33028/2041 SLP215 T02060006 50002
PAMR 171953Z 33017G25KT 10SM CLR 19/01 A3017 RMK AO2 PK WND 36029/1901 SLP216 T01940006
PAMR 171853Z 36015G24KT 10SM CLR 19/01 A3016 RMK AO2 SLP213 T01890006
PAMR 171753Z 32013G19KT 10SM CLR 17/01 A3016 RMK AO2 SLP213 T01670006 10167 20111 53010
PAMR 171653Z 33014KT 10SM CLR 16/01 A3015 RMK AO2 SLP209 T01560006
PAMR 171553Z 34007KT 10SM CLR 14/03 A3014 RMK AO2 SLP206 T01440028
PAMR 171453Z 07003KT 10SM FEW050 SCT110 SCT180 11/05 A3013 RMK AO2 SLP203 T01110050 51012
PAMR 171353Z 04005KT 10SM FEW050 SCT110 SCT180 13/05 A3012 RMK AO2 SLP199 T01280050
PAMR 171253Z 02011KT 10SM FEW050 15/06 A3012 RMK AO2 SLP198 T01500056
PAMR 171153Z 35007KT 320V020 10SM FEW060 SCT110 SCT180 16/03 A3009 RMK AO2 SLP191 T01610028 10211 20161 50012
PAMR 171053Z 35012G18KT 10SM FEW110 18/02 A3010 RMK AO2 SLP193 T01780022
PAMR 170953Z 36010G18KT 10SM FEW110 SCT180 19/04 A3009 RMK AO2 SLP189 T01890039
PAMR 170853Z 03007KT 10SM SCT180 19/06 A3006 RMK AO2 SLP179 T01890056 402670150 55005
PAMR 170753Z 36005KT 10SM FEW110 19/06 A3005 RMK AO2 SLP175 T01940056
PAMR 170653Z 33006G14KT 10SM FEW110 21/06 A3006 RMK AO2 SLP179 T02060056
PAMR 170553Z 00000KT 10SM CLR 19/09 A3008 RMK AO2 SLP185 T01940094 10256 20194 58001
PAMR 170453Z VRB03KT 10SM CLR 19/10 A3009 RMK AO2 SLP190 T01940100
PAMR 170353Z 28005KT 10SM CLR 20/10 A3009 RMK AO2 SLP191 T02000100